sensor_id;sensor_type;location;lat;lon;timestamp;temperature;humidity
14985;DHT22;7588;62.368;25.902;2023-07-16T00:00:15;11.80;99.90
14985;DHT22;7588;62.368;25.902;2023-07-16T00:02:43;11.80;99.90
14985;DHT22;7588;62.368;25.902;2023-07-16T00:05:09;11.70;99.90
14985;DHT22;7588;62.368;25.902;2023-07-16T00:07:35;11.70;99.90
14985;DHT22;7588;62.368;25.902;2023-07-16T00:10:01;11.70;99.90
14985;DHT22;7588;62.368;25.902;2023-07-16T00:12:27;11.70;99.90
14985;DHT22;7588;62.368;25.902;2023-07-16T00:14:53;11.70;99.90
14985;DHT22;7588;62.368;25.902;2023-07-16T00:17:20;11.80;99.90
14985;DHT22;7588;62.368;25.902;2023-07-16T00:19:46;11.70;99.90
14985;DHT22;7588;62.368;25.902;2023-07-16T00:22:12;11.70;99.90
14985;DHT22;7588;62.368;25.902;2023-07-16T00:24:37;11.60;99.90
14985;DHT22;7588;62.368;25.902;2023-07-16T00:27:03;11.60;99.90
14985;DHT22;7588;62.368;25.902;2023-07-16T00:29:29;11.50;99.90
14985;DHT22;7588;62.368;25.902;2023-07-16T00:31:55;11.60;99.90
14985;DHT22;7588;62.368;25.902;2023-07-16T00:34:20;11.50;99.90
14985;DHT22;7588;62.368;25.902;2023-07-16T00:36:46;11.50;99.90
14985;DHT22;7588;62.368;25.902;2023-07-16T00:39:12;11.40;99.90
14985;DHT22;7588;62.368;25.902;2023-07-16T00:41:37;11.40;99.90
14985;DHT22;7588;62.368;25.902;2023-07-16T00:44:03;11.40;99.90
14985;DHT22;7588;62.368;25.902;2023-07-16T00:46:29;11.40;99.90
14985;DHT22;7588;62.368;25.902;2023-07-16T00:48:55;11.50;99.90
14985;DHT22;7588;62.368;25.902;2023-07-16T00:51:22;11.50;99.90
14985;DHT22;7588;62.368;25.902;2023-07-16T00:53:49;11.50;99.90
14985;DHT22;7588;62.368;25.902;2023-07-16T00:56:17;11.40;99.90
14985;DHT22;7588;62.368;25.902;2023-07-16T00:58:45;11.40;99.90
14985;DHT22;7588;62.368;25.902;2023-07-16T01:01:12;11.30;99.90
14985;DHT22;7588;62.368;25.902;2023-07-16T01:03:37;11.30;99.90
14985;DHT22;7588;62.368;25.902;2023-07-16T01:06:22;11.20;99.90
14985;DHT22;7588;62.368;25.902;2023-07-16T01:11:19;11.20;99.90
14985;DHT22;7588;62.368;25.902;2023-07-16T01:13:45;11.20;99.90
14985;DHT22;7588;62.368;25.902;2023-07-16T01:16:21;11.10;99.90
14985;DHT22;7588;62.368;25.902;2023-07-16T01:18:47;11.10;99.90
14985;DHT22;7588;62.368;25.902;2023-07-16T01:21:14;11.20;99.90
14985;DHT22;7588;62.368;25.902;2023-07-16T01:29:27;11.10;99.90
14985;DHT22;7588;62.368;25.902;2023-07-16T01:31:55;11.10;99.90
14985;DHT22;7588;62.368;25.902;2023-07-16T01:34:22;11.10;99.90
14985;DHT22;7588;62.368;25.902;2023-07-16T01:36:50;11.00;99.90
14985;DHT22;7588;62.368;25.902;2023-07-16T01:39:16;11.00;99.90
14985;DHT22;7588;62.368;25.902;2023-07-16T01:41:42;11.10;99.90
14985;DHT22;7588;62.368;25.902;2023-07-16T01:44:07;11.10;99.90
14985;DHT22;7588;62.368;25.902;2023-07-16T01:46:33;11.10;99.90
14985;DHT22;7588;62.368;25.902;2023-07-16T01:48:59;11.10;99.90
14985;DHT22;7588;62.368;25.902;2023-07-16T01:51:25;11.20;99.90
14985;DHT22;7588;62.368;25.902;2023-07-16T01:53:50;11.20;99.90
14985;DHT22;7588;62.368;25.902;2023-07-16T01:56:16;11.30;99.90
14985;DHT22;7588;62.368;25.902;2023-07-16T01:58:42;11.40;99.90
14985;DHT22;7588;62.368;25.902;2023-07-16T02:01:08;11.40;99.90
14985;DHT22;7588;62.368;25.902;2023-07-16T02:03:33;11.60;99.90
14985;DHT22;7588;62.368;25.902;2023-07-16T02:05:59;11.60;99.90
14985;DHT22;7588;62.368;25.902;2023-07-16T02:08:25;11.60;99.90
14985;DHT22;7588;62.368;25.902;2023-07-16T02:10:50;11.70;99.90
14985;DHT22;7588;62.368;25.902;2023-07-16T02:13:16;11.70;99.90
14985;DHT22;7588;62.368;25.902;2023-07-16T02:15:42;11.80;99.90
14985;DHT22;7588;62.368;25.902;2023-07-16T02:18:09;11.80;99.90
14985;DHT22;7588;62.368;25.902;2023-07-16T02:20:35;11.80;99.90
14985;DHT22;7588;62.368;25.902;2023-07-16T02:23:00;11.90;99.90
14985;DHT22;7588;62.368;25.902;2023-07-16T02:25:26;11.80;99.90
14985;DHT22;7588;62.368;25.902;2023-07-16T02:27:52;11.80;99.90
14985;DHT22;7588;62.368;25.902;2023-07-16T02:30:18;11.80;99.90
14985;DHT22;7588;62.368;25.902;2023-07-16T02:32:44;11.90;99.90
14985;DHT22;7588;62.368;25.902;2023-07-16T02:35:10;11.90;99.90
14985;DHT22;7588;62.368;25.902;2023-07-16T02:37:36;11.90;99.90
14985;DHT22;7588;62.368;25.902;2023-07-16T02:40:01;12.00;99.90
14985;DHT22;7588;62.368;25.902;2023-07-16T02:42:28;12.00;99.90
14985;DHT22;7588;62.368;25.902;2023-07-16T02:44:54;12.00;99.90
14985;DHT22;7588;62.368;25.902;2023-07-16T02:47:19;12.10;99.90
14985;DHT22;7588;62.368;25.902;2023-07-16T02:49:45;12.10;99.90
14985;DHT22;7588;62.368;25.902;2023-07-16T02:52:11;12.20;99.90
14985;DHT22;7588;62.368;25.902;2023-07-16T02:54:36;12.20;99.90
14985;DHT22;7588;62.368;25.902;2023-07-16T02:57:02;12.30;99.90
14985;DHT22;7588;62.368;25.902;2023-07-16T02:59:28;12.30;99.90
14985;DHT22;7588;62.368;25.902;2023-07-16T03:01:54;12.30;99.90
14985;DHT22;7588;62.368;25.902;2023-07-16T03:04:20;12.40;99.90
14985;DHT22;7588;62.368;25.902;2023-07-16T03:06:45;12.40;99.90
14985;DHT22;7588;62.368;25.902;2023-07-16T03:09:11;12.50;99.90
14985;DHT22;7588;62.368;25.902;2023-07-16T03:11:37;12.60;99.90
14985;DHT22;7588;62.368;25.902;2023-07-16T03:14:03;12.60;99.90
14985;DHT22;7588;62.368;25.902;2023-07-16T03:16:28;12.70;99.90
14985;DHT22;7588;62.368;25.902;2023-07-16T03:18:54;12.80;99.90
14985;DHT22;7588;62.368;25.902;2023-07-16T03:21:20;13.00;99.90
14985;DHT22;7588;62.368;25.902;2023-07-16T03:23:45;13.10;99.90
14985;DHT22;7588;62.368;25.902;2023-07-16T03:26:11;13.30;99.90
14985;DHT22;7588;62.368;25.902;2023-07-16T03:28:37;13.40;99.90
14985;DHT22;7588;62.368;25.902;2023-07-16T03:31:02;13.50;99.90
14985;DHT22;7588;62.368;25.902;2023-07-16T03:33:28;13.60;99.90
14985;DHT22;7588;62.368;25.902;2023-07-16T03:35:54;13.70;99.90
14985;DHT22;7588;62.368;25.902;2023-07-16T03:38:19;13.90;99.90
14985;DHT22;7588;62.368;25.902;2023-07-16T03:40:49;14.00;99.90
14985;DHT22;7588;62.368;25.902;2023-07-16T03:43:16;14.10;99.90
14985;DHT22;7588;62.368;25.902;2023-07-16T03:45:42;14.20;99.90
14985;DHT22;7588;62.368;25.902;2023-07-16T03:48:08;14.30;99.90
14985;DHT22;7588;62.368;25.902;2023-07-16T03:50:35;14.60;99.90
14985;DHT22;7588;62.368;25.902;2023-07-16T03:53:01;14.80;99.90
14985;DHT22;7588;62.368;25.902;2023-07-16T03:55:28;15.10;99.90
14985;DHT22;7588;62.368;25.902;2023-07-16T03:57:54;15.30;99.90
14985;DHT22;7588;62.368;25.902;2023-07-16T04:00:19;15.50;99.90
14985;DHT22;7588;62.368;25.902;2023-07-16T04:02:45;15.70;99.90
14985;DHT22;7588;62.368;25.902;2023-07-16T04:05:11;15.80;99.90
14985;DHT22;7588;62.368;25.902;2023-07-16T04:07:36;15.90;99.90
14985;DHT22;7588;62.368;25.902;2023-07-16T04:10:02;16.10;99.90
14985;DHT22;7588;62.368;25.902;2023-07-16T04:12:28;16.20;99.90
14985;DHT22;7588;62.368;25.902;2023-07-16T04:14:57;16.30;99.90
14985;DHT22;7588;62.368;25.902;2023-07-16T04:17:24;16.40;99.90
14985;DHT22;7588;62.368;25.902;2023-07-16T04:19:50;16.50;99.90
14985;DHT22;7588;62.368;25.902;2023-07-16T04:22:15;16.60;99.90
14985;DHT22;7588;62.368;25.902;2023-07-16T04:24:41;16.70;99.90
14985;DHT22;7588;62.368;25.902;2023-07-16T04:27:07;16.90;99.90
14985;DHT22;7588;62.368;25.902;2023-07-16T04:29:33;17.00;99.90
14985;DHT22;7588;62.368;25.902;2023-07-16T04:31:58;17.20;99.90
14985;DHT22;7588;62.368;25.902;2023-07-16T04:34:24;17.30;99.90
14985;DHT22;7588;62.368;25.902;2023-07-16T04:36:50;17.50;99.90
14985;DHT22;7588;62.368;25.902;2023-07-16T04:39:15;17.80;99.90
14985;DHT22;7588;62.368;25.902;2023-07-16T04:41:41;18.30;99.90
14985;DHT22;7588;62.368;25.902;2023-07-16T04:44:07;19.10;99.90
14985;DHT22;7588;62.368;25.902;2023-07-16T04:46:33;20.30;99.90
14985;DHT22;7588;62.368;25.902;2023-07-16T04:48:59;21.10;99.90
14985;DHT22;7588;62.368;25.902;2023-07-16T04:51:24;21.90;99.90
14985;DHT22;7588;62.368;25.902;2023-07-16T04:53:51;22.30;99.90
14985;DHT22;7588;62.368;25.902;2023-07-16T04:56:17;22.80;99.90
14985;DHT22;7588;62.368;25.902;2023-07-16T04:58:43;23.20;99.90
14985;DHT22;7588;62.368;25.902;2023-07-16T05:01:09;23.60;99.90
14985;DHT22;7588;62.368;25.902;2023-07-16T05:03:35;23.90;99.90
14985;DHT22;7588;62.368;25.902;2023-07-16T05:06:02;24.40;96.30
14985;DHT22;7588;62.368;25.902;2023-07-16T05:08:27;24.30;96.80
14985;DHT22;7588;62.368;25.902;2023-07-16T05:10:53;24.40;96.50
14985;DHT22;7588;62.368;25.902;2023-07-16T05:13:19;24.60;96.90
14985;DHT22;7588;62.368;25.902;2023-07-16T05:15:44;24.70;95.70
14985;DHT22;7588;62.368;25.902;2023-07-16T05:18:10;25.10;95.80
14985;DHT22;7588;62.368;25.902;2023-07-16T05:20:36;24.90;95.00
14985;DHT22;7588;62.368;25.902;2023-07-16T05:23:02;25.20;94.70
14985;DHT22;7588;62.368;25.902;2023-07-16T05:25:28;25.50;94.70
14985;DHT22;7588;62.368;25.902;2023-07-16T05:27:54;25.50;94.20
14985;DHT22;7588;62.368;25.902;2023-07-16T05:30:20;25.60;94.30
14985;DHT22;7588;62.368;25.902;2023-07-16T05:32:45;25.90;93.30
14985;DHT22;7588;62.368;25.902;2023-07-16T05:35:11;26.10;93.50
14985;DHT22;7588;62.368;25.902;2023-07-16T05:37:37;26.10;92.70
14985;DHT22;7588;62.368;25.902;2023-07-16T05:40:03;26.20;92.40
14985;DHT22;7588;62.368;25.902;2023-07-16T05:42:29;26.20;92.00
14985;DHT22;7588;62.368;25.902;2023-07-16T05:44:55;26.10;91.50
14985;DHT22;7588;62.368;25.902;2023-07-16T05:47:20;26.10;91.00
14985;DHT22;7588;62.368;25.902;2023-07-16T05:49:46;26.20;87.80
14985;DHT22;7588;62.368;25.902;2023-07-16T05:52:12;26.20;88.40
14985;DHT22;7588;62.368;25.902;2023-07-16T05:54:38;26.30;87.10
14985;DHT22;7588;62.368;25.902;2023-07-16T05:57:04;26.40;87.70
14985;DHT22;7588;62.368;25.902;2023-07-16T05:59:30;26.50;87.20
14985;DHT22;7588;62.368;25.902;2023-07-16T06:01:59;26.70;85.60
14985;DHT22;7588;62.368;25.902;2023-07-16T06:04:25;26.70;83.00
14985;DHT22;7588;62.368;25.902;2023-07-16T06:06:51;26.60;83.90
14985;DHT22;7588;62.368;25.902;2023-07-16T06:09:17;26.50;81.70
14985;DHT22;7588;62.368;25.902;2023-07-16T06:11:45;26.60;81.70
14985;DHT22;7588;62.368;25.902;2023-07-16T06:14:11;26.70;80.00
14985;DHT22;7588;62.368;25.902;2023-07-16T06:16:37;26.60;80.80
14985;DHT22;7588;62.368;25.902;2023-07-16T06:19:02;26.60;81.00
14985;DHT22;7588;62.368;25.902;2023-07-16T06:21:28;26.70;81.60
14985;DHT22;7588;62.368;25.902;2023-07-16T06:23:53;26.80;84.40
14985;DHT22;7588;62.368;25.902;2023-07-16T06:26:19;27.10;81.10
14985;DHT22;7588;62.368;25.902;2023-07-16T06:28:45;27.40;75.40
14985;DHT22;7588;62.368;25.902;2023-07-16T06:31:14;27.30;79.30
14985;DHT22;7588;62.368;25.902;2023-07-16T06:33:40;27.50;78.70
14985;DHT22;7588;62.368;25.902;2023-07-16T06:36:06;27.50;77.90
14985;DHT22;7588;62.368;25.902;2023-07-16T06:38:31;27.20;78.40
14985;DHT22;7588;62.368;25.902;2023-07-16T06:40:57;27.70;77.10
14985;DHT22;7588;62.368;25.902;2023-07-16T06:43:23;27.80;78.30
14985;DHT22;7588;62.368;25.902;2023-07-16T06:45:49;27.70;77.00
14985;DHT22;7588;62.368;25.902;2023-07-16T06:48:16;27.70;75.90
14985;DHT22;7588;62.368;25.902;2023-07-16T06:50:42;27.60;77.80
14985;DHT22;7588;62.368;25.902;2023-07-16T06:53:08;27.70;79.10
14985;DHT22;7588;62.368;25.902;2023-07-16T06:55:33;27.90;76.40
14985;DHT22;7588;62.368;25.902;2023-07-16T06:58:00;28.20;75.70
14985;DHT22;7588;62.368;25.902;2023-07-16T07:00:26;28.00;78.30
14985;DHT22;7588;62.368;25.902;2023-07-16T07:02:52;27.90;77.30
14985;DHT22;7588;62.368;25.902;2023-07-16T07:05:18;28.00;80.10
14985;DHT22;7588;62.368;25.902;2023-07-16T07:07:43;27.90;77.00
14985;DHT22;7588;62.368;25.902;2023-07-16T07:10:14;27.50;78.10
14985;DHT22;7588;62.368;25.902;2023-07-16T07:12:40;27.50;76.00
14985;DHT22;7588;62.368;25.902;2023-07-16T07:15:06;27.20;78.40
14985;DHT22;7588;62.368;25.902;2023-07-16T07:17:32;27.00;81.50
14985;DHT22;7588;62.368;25.902;2023-07-16T07:19:58;27.20;81.10
14985;DHT22;7588;62.368;25.902;2023-07-16T07:22:24;26.90;81.90
14985;DHT22;7588;62.368;25.902;2023-07-16T07:24:49;26.80;85.70
14985;DHT22;7588;62.368;25.902;2023-07-16T07:27:16;26.70;82.70
14985;DHT22;7588;62.368;25.902;2023-07-16T07:29:41;26.80;83.20
14985;DHT22;7588;62.368;25.902;2023-07-16T07:32:07;26.60;86.90
14985;DHT22;7588;62.368;25.902;2023-07-16T07:34:33;26.60;86.30
14985;DHT22;7588;62.368;25.902;2023-07-16T07:36:59;26.90;85.70
14985;DHT22;7588;62.368;25.902;2023-07-16T07:39:24;27.10;84.50
14985;DHT22;7588;62.368;25.902;2023-07-16T07:41:50;27.10;84.70
14985;DHT22;7588;62.368;25.902;2023-07-16T07:44:16;27.10;86.80
14985;DHT22;7588;62.368;25.902;2023-07-16T07:46:41;27.20;87.10
14985;DHT22;7588;62.368;25.902;2023-07-16T07:49:07;27.30;83.20
14985;DHT22;7588;62.368;25.902;2023-07-16T07:51:33;27.10;82.70
14985;DHT22;7588;62.368;25.902;2023-07-16T07:53:59;26.50;83.40
14985;DHT22;7588;62.368;25.902;2023-07-16T07:56:25;26.20;84.20
14985;DHT22;7588;62.368;25.902;2023-07-16T07:58:50;26.00;88.30
14985;DHT22;7588;62.368;25.902;2023-07-16T08:01:16;26.00;87.90
14985;DHT22;7588;62.368;25.902;2023-07-16T08:03:42;25.90;84.30
14985;DHT22;7588;62.368;25.902;2023-07-16T08:06:07;25.90;86.10
14985;DHT22;7588;62.368;25.902;2023-07-16T08:08:33;26.10;84.80
14985;DHT22;7588;62.368;25.902;2023-07-16T08:10:59;26.30;82.60
14985;DHT22;7588;62.368;25.902;2023-07-16T08:13:24;26.50;84.60
14985;DHT22;7588;62.368;25.902;2023-07-16T08:15:50;26.70;84.30
14985;DHT22;7588;62.368;25.902;2023-07-16T08:18:16;27.10;79.10
14985;DHT22;7588;62.368;25.902;2023-07-16T08:20:41;27.00;81.60
14985;DHT22;7588;62.368;25.902;2023-07-16T08:23:07;26.80;79.10
14985;DHT22;7588;62.368;25.902;2023-07-16T08:25:33;26.70;80.30
14985;DHT22;7588;62.368;25.902;2023-07-16T08:27:58;26.60;79.10
14985;DHT22;7588;62.368;25.902;2023-07-16T08:30:24;26.50;77.00
14985;DHT22;7588;62.368;25.902;2023-07-16T08:32:50;26.70;78.20
14985;DHT22;7588;62.368;25.902;2023-07-16T08:35:16;26.60;77.20
14985;DHT22;7588;62.368;25.902;2023-07-16T08:37:43;26.80;80.00
14985;DHT22;7588;62.368;25.902;2023-07-16T08:40:10;26.90;80.30
14985;DHT22;7588;62.368;25.902;2023-07-16T08:42:40;27.00;75.60
14985;DHT22;7588;62.368;25.902;2023-07-16T08:45:12;27.10;77.80
14985;DHT22;7588;62.368;25.902;2023-07-16T08:47:39;26.60;73.70
14985;DHT22;7588;62.368;25.902;2023-07-16T08:50:05;26.40;77.70
14985;DHT22;7588;62.368;25.902;2023-07-16T08:52:31;26.70;76.60
14985;DHT22;7588;62.368;25.902;2023-07-16T08:54:56;27.00;75.90
14985;DHT22;7588;62.368;25.902;2023-07-16T08:57:23;27.40;74.30
14985;DHT22;7588;62.368;25.902;2023-07-16T08:59:49;27.40;70.60
14985;DHT22;7588;62.368;25.902;2023-07-16T09:02:18;27.10;67.70
14985;DHT22;7588;62.368;25.902;2023-07-16T09:04:47;26.90;69.50
14985;DHT22;7588;62.368;25.902;2023-07-16T09:07:14;26.90;69.50
14985;DHT22;7588;62.368;25.902;2023-07-16T09:09:39;26.90;70.70
14985;DHT22;7588;62.368;25.902;2023-07-16T09:12:05;27.00;68.50
14985;DHT22;7588;62.368;25.902;2023-07-16T09:14:31;27.00;65.40
14985;DHT22;7588;62.368;25.902;2023-07-16T09:16:57;26.90;63.30
14985;DHT22;7588;62.368;25.902;2023-07-16T09:19:24;26.80;67.60
14985;DHT22;7588;62.368;25.902;2023-07-16T09:21:51;26.50;62.60
14985;DHT22;7588;62.368;25.902;2023-07-16T09:24:18;26.40;58.80
14985;DHT22;7588;62.368;25.902;2023-07-16T09:26:51;26.20;59.30
14985;DHT22;7588;62.368;25.902;2023-07-16T09:29:18;26.10;60.30
14985;DHT22;7588;62.368;25.902;2023-07-16T09:31:56;26.30;59.00
14985;DHT22;7588;62.368;25.902;2023-07-16T09:34:22;26.70;60.80
14985;DHT22;7588;62.368;25.902;2023-07-16T09:36:48;26.90;59.80
14985;DHT22;7588;62.368;25.902;2023-07-16T09:39:17;27.10;59.60
14985;DHT22;7588;62.368;25.902;2023-07-16T09:41:47;27.30;63.50
14985;DHT22;7588;62.368;25.902;2023-07-16T09:44:13;27.20;62.10
14985;DHT22;7588;62.368;25.902;2023-07-16T09:46:39;27.20;62.50
14985;DHT22;7588;62.368;25.902;2023-07-16T09:49:06;27.40;62.90
14985;DHT22;7588;62.368;25.902;2023-07-16T09:51:32;27.40;62.60
14985;DHT22;7588;62.368;25.902;2023-07-16T09:54:02;27.70;61.10
14985;DHT22;7588;62.368;25.902;2023-07-16T09:56:36;28.00;61.40
14985;DHT22;7588;62.368;25.902;2023-07-16T09:59:09;27.80;59.90
14985;DHT22;7588;62.368;25.902;2023-07-16T10:01:37;27.60;60.20
14985;DHT22;7588;62.368;25.902;2023-07-16T10:04:17;27.50;62.20
14985;DHT22;7588;62.368;25.902;2023-07-16T10:06:59;27.20;57.80
14985;DHT22;7588;62.368;25.902;2023-07-16T10:09:38;26.80;57.70
14985;DHT22;7588;62.368;25.902;2023-07-16T10:12:17;26.60;58.40
14985;DHT22;7588;62.368;25.902;2023-07-16T10:14:46;26.90;57.10
14985;DHT22;7588;62.368;25.902;2023-07-16T10:17:26;27.20;55.70
14985;DHT22;7588;62.368;25.902;2023-07-16T10:19:59;27.60;60.20
14985;DHT22;7588;62.368;25.902;2023-07-16T10:22:35;27.80;55.50
14985;DHT22;7588;62.368;25.902;2023-07-16T10:25:22;28.00;56.20
14985;DHT22;7588;62.368;25.902;2023-07-16T10:27:50;27.60;55.80
14985;DHT22;7588;62.368;25.902;2023-07-16T10:30:16;27.50;53.80
14985;DHT22;7588;62.368;25.902;2023-07-16T10:32:42;27.60;57.70
14985;DHT22;7588;62.368;25.902;2023-07-16T10:35:09;27.80;57.00
14985;DHT22;7588;62.368;25.902;2023-07-16T10:37:36;27.80;57.80
14985;DHT22;7588;62.368;25.902;2023-07-16T10:40:03;27.80;55.60
14985;DHT22;7588;62.368;25.902;2023-07-16T10:42:29;28.00;55.20
14985;DHT22;7588;62.368;25.902;2023-07-16T10:44:59;28.10;55.50
14985;DHT22;7588;62.368;25.902;2023-07-16T10:47:29;28.40;57.40
14985;DHT22;7588;62.368;25.902;2023-07-16T10:49:55;28.60;54.50
14985;DHT22;7588;62.368;25.902;2023-07-16T10:52:21;28.70;54.40
14985;DHT22;7588;62.368;25.902;2023-07-16T10:54:48;28.60;55.10
14985;DHT22;7588;62.368;25.902;2023-07-16T10:57:16;28.30;57.60
14985;DHT22;7588;62.368;25.902;2023-07-16T10:59:42;28.00;57.30
14985;DHT22;7588;62.368;25.902;2023-07-16T11:02:13;28.00;58.50
14985;DHT22;7588;62.368;25.902;2023-07-16T11:04:40;28.10;60.30
14985;DHT22;7588;62.368;25.902;2023-07-16T11:07:10;28.20;57.50
14985;DHT22;7588;62.368;25.902;2023-07-16T11:09:50;28.30;56.30
14985;DHT22;7588;62.368;25.902;2023-07-16T11:12:18;28.10;56.10
14985;DHT22;7588;62.368;25.902;2023-07-16T11:14:49;28.00;56.20
14985;DHT22;7588;62.368;25.902;2023-07-16T11:17:15;28.30;54.30
14985;DHT22;7588;62.368;25.902;2023-07-16T11:19:45;28.60;55.40
14985;DHT22;7588;62.368;25.902;2023-07-16T11:22:11;28.80;55.20
14985;DHT22;7588;62.368;25.902;2023-07-16T11:24:47;28.80;55.60
14985;DHT22;7588;62.368;25.902;2023-07-16T11:27:17;28.60;55.10
14985;DHT22;7588;62.368;25.902;2023-07-16T11:29:56;28.90;57.10
14985;DHT22;7588;62.368;25.902;2023-07-16T11:34:58;29.00;57.20
14985;DHT22;7588;62.368;25.902;2023-07-16T11:37:28;29.00;58.20
14985;DHT22;7588;62.368;25.902;2023-07-16T11:39:57;29.20;56.00
14985;DHT22;7588;62.368;25.902;2023-07-16T11:42:30;29.60;58.00
14985;DHT22;7588;62.368;25.902;2023-07-16T11:44:57;29.60;57.50
14985;DHT22;7588;62.368;25.902;2023-07-16T11:47:24;29.50;55.20
14985;DHT22;7588;62.368;25.902;2023-07-16T11:49:50;29.40;56.00
14985;DHT22;7588;62.368;25.902;2023-07-16T11:52:24;29.60;58.70
14985;DHT22;7588;62.368;25.902;2023-07-16T11:54:52;29.50;56.70
14985;DHT22;7588;62.368;25.902;2023-07-16T11:57:17;29.30;56.30
14985;DHT22;7588;62.368;25.902;2023-07-16T11:59:43;29.50;57.00
14985;DHT22;7588;62.368;25.902;2023-07-16T12:02:09;29.60;57.60
14985;DHT22;7588;62.368;25.902;2023-07-16T12:04:35;29.50;54.40
14985;DHT22;7588;62.368;25.902;2023-07-16T12:07:00;29.60;56.10
14985;DHT22;7588;62.368;25.902;2023-07-16T12:09:26;29.80;54.60
14985;DHT22;7588;62.368;25.902;2023-07-16T12:11:52;29.90;56.40
14985;DHT22;7588;62.368;25.902;2023-07-16T12:14:17;29.80;55.60
14985;DHT22;7588;62.368;25.902;2023-07-16T12:16:43;29.80;54.10
14985;DHT22;7588;62.368;25.902;2023-07-16T12:19:09;30.00;57.60
14985;DHT22;7588;62.368;25.902;2023-07-16T12:21:35;30.40;52.60
14985;DHT22;7588;62.368;25.902;2023-07-16T12:24:01;30.40;53.10
14985;DHT22;7588;62.368;25.902;2023-07-16T12:26:27;30.10;56.30
14985;DHT22;7588;62.368;25.902;2023-07-16T12:28:53;30.00;55.90
14985;DHT22;7588;62.368;25.902;2023-07-16T12:31:19;30.00;54.80
14985;DHT22;7588;62.368;25.902;2023-07-16T12:33:48;29.70;55.30
14985;DHT22;7588;62.368;25.902;2023-07-16T12:36:14;29.30;56.60
14985;DHT22;7588;62.368;25.902;2023-07-16T12:38:40;29.20;56.60
14985;DHT22;7588;62.368;25.902;2023-07-16T12:41:06;29.00;56.60
14985;DHT22;7588;62.368;25.902;2023-07-16T12:43:32;29.00;55.00
14985;DHT22;7588;62.368;25.902;2023-07-16T12:46:03;29.10;57.30
14985;DHT22;7588;62.368;25.902;2023-07-16T12:48:30;29.00;57.60
14985;DHT22;7588;62.368;25.902;2023-07-16T12:50:56;29.20;57.80
14985;DHT22;7588;62.368;25.902;2023-07-16T12:53:22;29.60;58.80
14985;DHT22;7588;62.368;25.902;2023-07-16T12:55:48;30.00;59.20
14985;DHT22;7588;62.368;25.902;2023-07-16T12:58:13;30.30;61.20
14985;DHT22;7588;62.368;25.902;2023-07-16T13:00:39;30.40;58.70
14985;DHT22;7588;62.368;25.902;2023-07-16T13:03:05;30.20;56.60
14985;DHT22;7588;62.368;25.902;2023-07-16T13:05:30;29.70;57.80
14985;DHT22;7588;62.368;25.902;2023-07-16T13:07:56;28.80;58.90
14985;DHT22;7588;62.368;25.902;2023-07-16T13:10:23;28.30;58.00
14985;DHT22;7588;62.368;25.902;2023-07-16T13:12:49;27.70;60.20
14985;DHT22;7588;62.368;25.902;2023-07-16T13:15:14;27.60;60.70
14985;DHT22;7588;62.368;25.902;2023-07-16T13:17:40;27.50;62.60
14985;DHT22;7588;62.368;25.902;2023-07-16T13:20:06;27.20;61.30
14985;DHT22;7588;62.368;25.902;2023-07-16T13:22:32;27.10;65.50
14985;DHT22;7588;62.368;25.902;2023-07-16T13:24:58;26.90;65.00
14985;DHT22;7588;62.368;25.902;2023-07-16T13:27:25;26.70;66.70
14985;DHT22;7588;62.368;25.902;2023-07-16T13:29:50;26.50;67.80
14985;DHT22;7588;62.368;25.902;2023-07-16T13:32:16;26.30;66.40
14985;DHT22;7588;62.368;25.902;2023-07-16T13:34:42;26.00;66.20
14985;DHT22;7588;62.368;25.902;2023-07-16T13:37:08;25.80;68.80
14985;DHT22;7588;62.368;25.902;2023-07-16T13:39:34;25.70;68.10
14985;DHT22;7588;62.368;25.902;2023-07-16T13:42:00;25.60;67.20
14985;DHT22;7588;62.368;25.902;2023-07-16T13:44:25;25.60;67.20
14985;DHT22;7588;62.368;25.902;2023-07-16T13:46:51;25.60;67.00
14985;DHT22;7588;62.368;25.902;2023-07-16T13:49:16;25.50;69.90
14985;DHT22;7588;62.368;25.902;2023-07-16T13:51:42;25.40;70.40
14985;DHT22;7588;62.368;25.902;2023-07-16T13:54:11;25.40;70.30
14985;DHT22;7588;62.368;25.902;2023-07-16T13:56:37;25.40;71.00
14985;DHT22;7588;62.368;25.902;2023-07-16T13:59:03;25.30;70.50
14985;DHT22;7588;62.368;25.902;2023-07-16T14:01:29;25.20;72.40
14985;DHT22;7588;62.368;25.902;2023-07-16T14:03:55;25.20;74.90
14985;DHT22;7588;62.368;25.902;2023-07-16T14:06:21;25.20;72.40
14985;DHT22;7588;62.368;25.902;2023-07-16T14:08:47;25.20;74.20
14985;DHT22;7588;62.368;25.902;2023-07-16T14:11:12;25.30;72.70
14985;DHT22;7588;62.368;25.902;2023-07-16T14:13:38;25.50;71.00
14985;DHT22;7588;62.368;25.902;2023-07-16T14:16:04;25.70;70.30
14985;DHT22;7588;62.368;25.902;2023-07-16T14:18:30;25.80;70.40
14985;DHT22;7588;62.368;25.902;2023-07-16T14:20:56;25.70;70.90
14985;DHT22;7588;62.368;25.902;2023-07-16T14:23:21;25.80;69.90
14985;DHT22;7588;62.368;25.902;2023-07-16T14:25:47;25.80;70.10
14985;DHT22;7588;62.368;25.902;2023-07-16T14:28:13;25.80;71.10
14985;DHT22;7588;62.368;25.902;2023-07-16T14:30:38;25.60;70.10
14985;DHT22;7588;62.368;25.902;2023-07-16T14:33:04;25.60;71.20
14985;DHT22;7588;62.368;25.902;2023-07-16T14:35:32;25.30;70.90
14985;DHT22;7588;62.368;25.902;2023-07-16T14:37:58;25.30;72.50
14985;DHT22;7588;62.368;25.902;2023-07-16T14:40:24;25.20;71.50
14985;DHT22;7588;62.368;25.902;2023-07-16T14:42:51;25.30;71.80
14985;DHT22;7588;62.368;25.902;2023-07-16T14:45:17;25.30;73.30
14985;DHT22;7588;62.368;25.902;2023-07-16T14:47:43;25.20;71.20
14985;DHT22;7588;62.368;25.902;2023-07-16T14:50:09;25.00;72.40
14985;DHT22;7588;62.368;25.902;2023-07-16T14:52:35;24.70;73.70
14985;DHT22;7588;62.368;25.902;2023-07-16T14:55:02;24.60;74.70
14985;DHT22;7588;62.368;25.902;2023-07-16T14:57:29;24.60;74.70
14985;DHT22;7588;62.368;25.902;2023-07-16T14:59:55;24.60;72.90
14985;DHT22;7588;62.368;25.902;2023-07-16T15:02:21;24.70;73.20
14985;DHT22;7588;62.368;25.902;2023-07-16T15:04:47;24.60;71.20
14985;DHT22;7588;62.368;25.902;2023-07-16T15:07:13;24.40;72.10
14985;DHT22;7588;62.368;25.902;2023-07-16T15:09:38;24.30;72.90
14985;DHT22;7588;62.368;25.902;2023-07-16T15:12:05;24.20;73.80
14985;DHT22;7588;62.368;25.902;2023-07-16T15:14:31;24.20;74.70
14985;DHT22;7588;62.368;25.902;2023-07-16T15:16:58;24.40;73.90
14985;DHT22;7588;62.368;25.902;2023-07-16T15:19:24;24.40;73.70
14985;DHT22;7588;62.368;25.902;2023-07-16T15:21:50;24.30;76.40
14985;DHT22;7588;62.368;25.902;2023-07-16T15:24:15;24.20;75.00
14985;DHT22;7588;62.368;25.902;2023-07-16T15:26:41;24.20;74.90
14985;DHT22;7588;62.368;25.902;2023-07-16T15:29:07;24.10;74.40
14985;DHT22;7588;62.368;25.902;2023-07-16T15:31:33;24.00;73.70
14985;DHT22;7588;62.368;25.902;2023-07-16T15:33:59;23.90;74.80
14985;DHT22;7588;62.368;25.902;2023-07-16T15:36:25;23.80;76.80